sensor_id;sensor_type;location;lat;lon;timestamp;P1;durP1;ratioP1;P2;durP2;ratioP2
4011;SDS011;2020;48.682;9.024;2023-03-01T00:00:11;16.90;;;12.20;;
4011;SDS011;2020;48.682;9.024;2023-03-01T00:02:36;16.47;;;12.83;;
4011;SDS011;2020;48.682;9.024;2023-03-01T00:05:02;21.23;;;12.80;;
4011;SDS011;2020;48.682;9.024;2023-03-01T00:07:28;18.07;;;12.10;;
4011;SDS011;2020;48.682;9.024;2023-03-01T00:09:53;15.20;;;11.17;;
4011;SDS011;2020;48.682;9.024;2023-03-01T00:12:19;14.30;;;11.27;;
4011;SDS011;2020;48.682;9.024;2023-03-01T00:14:44;22.40;;;12.50;;
4011;SDS011;2020;48.682;9.024;2023-03-01T00:17:09;17.53;;;11.90;;
4011;SDS011;2020;48.682;9.024;2023-03-01T00:19:35;17.03;;;13.03;;
4011;SDS011;2020;48.682;9.024;2023-03-01T00:22:00;20.80;;;11.90;;
4011;SDS011;2020;48.682;9.024;2023-03-01T00:24:25;15.57;;;11.03;;
4011;SDS011;2020;48.682;9.024;2023-03-01T00:26:52;14.20;;;11.00;;
4011;SDS011;2020;48.682;9.024;2023-03-01T00:29:20;15.50;;;11.17;;
4011;SDS011;2020;48.682;9.024;2023-03-01T00:31:46;14.33;;;11.13;;
4011;SDS011;2020;48.682;9.024;2023-03-01T00:34:11;15.83;;;11.30;;
4011;SDS011;2020;48.682;9.024;2023-03-01T00:36:36;17.50;;;12.97;;
4011;SDS011;2020;48.682;9.024;2023-03-01T00:39:03;20.50;;;13.73;;
4011;SDS011;2020;48.682;9.024;2023-03-01T00:41:30;17.37;;;11.63;;
4011;SDS011;2020;48.682;9.024;2023-03-01T00:43:55;16.70;;;11.97;;
4011;SDS011;2020;48.682;9.024;2023-03-01T00:46:22;13.97;;;11.70;;
4011;SDS011;2020;48.682;9.024;2023-03-01T00:48:50;13.40;;;10.23;;
4011;SDS011;2020;48.682;9.024;2023-03-01T00:51:26;17.27;;;10.67;;
4011;SDS011;2020;48.682;9.024;2023-03-01T00:53:53;17.67;;;11.20;;
4011;SDS011;2020;48.682;9.024;2023-03-01T00:56:20;16.73;;;11.57;;
4011;SDS011;2020;48.682;9.024;2023-03-01T00:58:45;16.50;;;11.17;;
4011;SDS011;2020;48.682;9.024;2023-03-01T01:01:18;16.03;;;11.60;;
4011;SDS011;2020;48.682;9.024;2023-03-01T01:03:56;15.13;;;11.50;;
4011;SDS011;2020;48.682;9.024;2023-03-01T01:06:25;17.30;;;11.53;;
4011;SDS011;2020;48.682;9.024;2023-03-01T01:08:53;19.67;;;14.50;;
4011;SDS011;2020;48.682;9.024;2023-03-01T01:11:19;14.87;;;11.53;;
4011;SDS011;2020;48.682;9.024;2023-03-01T01:13:46;20.43;;;12.00;;
4011;SDS011;2020;48.682;9.024;2023-03-01T01:16:12;17.93;;;11.77;;
4011;SDS011;2020;48.682;9.024;2023-03-01T01:18:39;16.93;;;11.57;;
4011;SDS011;2020;48.682;9.024;2023-03-01T01:21:08;19.13;;;11.47;;
4011;SDS011;2020;48.682;9.024;2023-03-01T01:23:39;15.23;;;12.03;;
4011;SDS011;2020;48.682;9.024;2023-03-01T01:26:07;17.43;;;12.53;;
4011;SDS011;2020;48.682;9.024;2023-03-01T01:28:35;16.97;;;11.70;;
4011;SDS011;2020;48.682;9.024;2023-03-01T01:31:01;14.87;;;10.03;;
4011;SDS011;2020;48.682;9.024;2023-03-01T01:33:26;16.90;;;11.73;;
4011;SDS011;2020;48.682;9.024;2023-03-01T01:35:52;18.40;;;12.43;;
4011;SDS011;2020;48.682;9.024;2023-03-01T01:38:17;19.13;;;12.20;;
4011;SDS011;2020;48.682;9.024;2023-03-01T01:40:43;17.07;;;10.80;;
4011;SDS011;2020;48.682;9.024;2023-03-01T01:45:50;15.40;;;11.27;;
4011;SDS011;2020;48.682;9.024;2023-03-01T01:48:20;17.90;;;11.20;;
4011;SDS011;2020;48.682;9.024;2023-03-01T01:50:51;17.17;;;12.60;;
4011;SDS011;2020;48.682;9.024;2023-03-01T01:53:22;19.53;;;12.00;;
4011;SDS011;2020;48.682;9.024;2023-03-01T01:55:51;16.03;;;12.10;;
4011;SDS011;2020;48.682;9.024;2023-03-01T01:58:21;16.23;;;11.73;;
4011;SDS011;2020;48.682;9.024;2023-03-01T02:00:49;17.30;;;11.50;;
4011;SDS011;2020;48.682;9.024;2023-03-01T02:03:16;14.90;;;11.67;;
4011;SDS011;2020;48.682;9.024;2023-03-01T02:05:56;17.53;;;12.00;;
4011;SDS011;2020;48.682;9.024;2023-03-01T02:08:28;21.23;;;12.63;;
4011;SDS011;2020;48.682;9.024;2023-03-01T02:10:55;17.73;;;12.30;;
4011;SDS011;2020;48.682;9.024;2023-03-01T02:13:22;19.23;;;14.07;;
4011;SDS011;2020;48.682;9.024;2023-03-01T02:15:48;16.30;;;12.57;;
4011;SDS011;2020;48.682;9.024;2023-03-01T02:18:14;24.33;;;12.63;;
4011;SDS011;2020;48.682;9.024;2023-03-01T02:21:06;24.50;;;15.07;;
4011;SDS011;2020;48.682;9.024;2023-03-01T02:23:39;20.83;;;13.40;;
4011;SDS011;2020;48.682;9.024;2023-03-01T02:26:06;24.80;;;12.67;;
4011;SDS011;2020;48.682;9.024;2023-03-01T02:28:36;16.10;;;11.97;;
4011;SDS011;2020;48.682;9.024;2023-03-01T02:31:04;16.27;;;12.37;;
4011;SDS011;2020;48.682;9.024;2023-03-01T02:33:50;23.13;;;13.80;;
4011;SDS011;2020;48.682;9.024;2023-03-01T02:36:23;20.73;;;12.20;;
4011;SDS011;2020;48.682;9.024;2023-03-01T02:38:52;20.40;;;13.00;;
4011;SDS011;2020;48.682;9.024;2023-03-01T02:41:21;15.40;;;12.93;;
4011;SDS011;2020;48.682;9.024;2023-03-01T02:43:48;16.67;;;12.40;;
4011;SDS011;2020;48.682;9.024;2023-03-01T02:46:21;18.30;;;13.20;;
4011;SDS011;2020;48.682;9.024;2023-03-01T02:48:50;18.20;;;12.47;;
4011;SDS011;2020;48.682;9.024;2023-03-01T02:54:24;16.20;;;11.17;;
4011;SDS011;2020;48.682;9.024;2023-03-01T02:56:56;31.77;;;11.30;;
4011;SDS011;2020;48.682;9.024;2023-03-01T02:59:24;19.27;;;13.10;;
4011;SDS011;2020;48.682;9.024;2023-03-01T03:01:52;21.27;;;13.37;;
4011;SDS011;2020;48.682;9.024;2023-03-01T03:04:18;22.63;;;13.40;;
4011;SDS011;2020;48.682;9.024;2023-03-01T03:06:46;22.23;;;12.93;;
4011;SDS011;2020;48.682;9.024;2023-03-01T03:09:13;21.97;;;13.40;;
4011;SDS011;2020;48.682;9.024;2023-03-01T03:11:39;19.03;;;11.60;;
4011;SDS011;2020;48.682;9.024;2023-03-01T03:14:05;15.83;;;11.03;;
4011;SDS011;2020;48.682;9.024;2023-03-01T03:16:37;21.07;;;14.47;;
4011;SDS011;2020;48.682;9.024;2023-03-01T03:19:13;16.20;;;12.67;;
4011;SDS011;2020;48.682;9.024;2023-03-01T03:21:39;20.87;;;14.07;;
4011;SDS011;2020;48.682;9.024;2023-03-01T03:24:04;19.57;;;13.03;;
4011;SDS011;2020;48.682;9.024;2023-03-01T03:26:30;19.60;;;13.63;;
4011;SDS011;2020;48.682;9.024;2023-03-01T03:28:57;21.00;;;12.53;;
4011;SDS011;2020;48.682;9.024;2023-03-01T03:31:22;18.13;;;12.07;;
4011;SDS011;2020;48.682;9.024;2023-03-01T03:33:48;21.07;;;13.80;;
4011;SDS011;2020;48.682;9.024;2023-03-01T03:36:17;20.20;;;13.10;;
4011;SDS011;2020;48.682;9.024;2023-03-01T03:38:44;18.57;;;13.60;;
4011;SDS011;2020;48.682;9.024;2023-03-01T03:41:10;18.37;;;13.63;;
4011;SDS011;2020;48.682;9.024;2023-03-01T03:43:38;17.37;;;11.63;;
4011;SDS011;2020;48.682;9.024;2023-03-01T03:46:05;20.37;;;14.07;;
4011;SDS011;2020;48.682;9.024;2023-03-01T03:48:36;16.87;;;11.60;;
4011;SDS011;2020;48.682;9.024;2023-03-01T03:51:03;18.50;;;13.30;;
4011;SDS011;2020;48.682;9.024;2023-03-01T03:53:31;18.80;;;13.87;;
4011;SDS011;2020;48.682;9.024;2023-03-01T03:55:57;16.40;;;11.70;;
4011;SDS011;2020;48.682;9.024;2023-03-01T03:58:23;19.67;;;14.37;;
4011;SDS011;2020;48.682;9.024;2023-03-01T04:00:51;19.20;;;13.03;;
4011;SDS011;2020;48.682;9.024;2023-03-01T04:03:18;17.30;;;13.40;;
4011;SDS011;2020;48.682;9.024;2023-03-01T04:05:44;20.17;;;13.87;;
4011;SDS011;2020;48.682;9.024;2023-03-01T04:08:10;27.50;;;15.80;;
4011;SDS011;2020;48.682;9.024;2023-03-01T04:10:40;18.10;;;13.60;;
4011;SDS011;2020;48.682;9.024;2023-03-01T04:13:14;20.10;;;12.87;;
4011;SDS011;2020;48.682;9.024;2023-03-01T04:15:41;19.63;;;13.00;;
4011;SDS011;2020;48.682;9.024;2023-03-01T04:18:11;24.17;;;13.90;;
4011;SDS011;2020;48.682;9.024;2023-03-01T04:20:38;25.03;;;13.87;;
4011;SDS011;2020;48.682;9.024;2023-03-01T04:23:05;24.00;;;14.07;;
4011;SDS011;2020;48.682;9.024;2023-03-01T04:25:54;22.07;;;14.00;;
4011;SDS011;2020;48.682;9.024;2023-03-01T04:28:25;17.10;;;13.20;;
4011;SDS011;2020;48.682;9.024;2023-03-01T04:31:03;20.97;;;13.23;;
4011;SDS011;2020;48.682;9.024;2023-03-01T04:33:43;18.27;;;13.40;;
4011;SDS011;2020;48.682;9.024;2023-03-01T04:36:14;19.77;;;13.47;;
4011;SDS011;2020;48.682;9.024;2023-03-01T04:38:41;19.90;;;13.63;;
4011;SDS011;2020;48.682;9.024;2023-03-01T04:41:08;19.00;;;13.97;;
4011;SDS011;2020;48.682;9.024;2023-03-01T04:43:35;19.93;;;13.93;;
4011;SDS011;2020;48.682;9.024;2023-03-01T04:46:01;18.97;;;13.50;;
4011;SDS011;2020;48.682;9.024;2023-03-01T04:48:34;22.40;;;13.77;;
4011;SDS011;2020;48.682;9.024;2023-03-01T04:51:00;20.07;;;14.20;;
4011;SDS011;2020;48.682;9.024;2023-03-01T04:53:26;20.73;;;14.00;;
4011;SDS011;2020;48.682;9.024;2023-03-01T04:55:53;20.10;;;14.87;;
4011;SDS011;2020;48.682;9.024;2023-03-01T04:58:19;22.20;;;13.60;;
4011;SDS011;2020;48.682;9.024;2023-03-01T05:00:44;23.13;;;14.40;;
4011;SDS011;2020;48.682;9.024;2023-03-01T05:03:09;21.80;;;14.97;;
4011;SDS011;2020;48.682;9.024;2023-03-01T05:05:36;17.57;;;13.47;;
4011;SDS011;2020;48.682;9.024;2023-03-01T05:08:03;16.93;;;12.57;;
4011;SDS011;2020;48.682;9.024;2023-03-01T05:10:32;20.13;;;13.83;;
4011;SDS011;2020;48.682;9.024;2023-03-01T05:13:00;23.23;;;15.23;;
4011;SDS011;2020;48.682;9.024;2023-03-01T05:15:27;25.43;;;14.60;;
4011;SDS011;2020;48.682;9.024;2023-03-01T05:17:55;22.50;;;15.00;;
4011;SDS011;2020;48.682;9.024;2023-03-01T05:20:26;26.10;;;14.30;;
4011;SDS011;2020;48.682;9.024;2023-03-01T05:22:55;20.97;;;14.10;;
4011;SDS011;2020;48.682;9.024;2023-03-01T05:25:23;23.77;;;15.27;;
4011;SDS011;2020;48.682;9.024;2023-03-01T05:27:49;24.50;;;14.53;;
4011;SDS011;2020;48.682;9.024;2023-03-01T05:30:15;24.73;;;14.53;;
4011;SDS011;2020;48.682;9.024;2023-03-01T05:32:46;21.03;;;13.90;;
4011;SDS011;2020;48.682;9.024;2023-03-01T05:35:14;22.40;;;14.10;;
4011;SDS011;2020;48.682;9.024;2023-03-01T05:37:45;22.30;;;13.90;;
4011;SDS011;2020;48.682;9.024;2023-03-01T05:40:13;20.43;;;14.53;;
4011;SDS011;2020;48.682;9.024;2023-03-01T05:42:47;19.80;;;13.77;;
4011;SDS011;2020;48.682;9.024;2023-03-01T05:45:14;21.23;;;14.37;;
4011;SDS011;2020;48.682;9.024;2023-03-01T05:47:41;20.93;;;13.47;;
4011;SDS011;2020;48.682;9.024;2023-03-01T05:50:12;24.47;;;14.30;;
4011;SDS011;2020;48.682;9.024;2023-03-01T05:52:52;19.17;;;14.23;;
4011;SDS011;2020;48.682;9.024;2023-03-01T05:55:30;20.47;;;14.97;;
4011;SDS011;2020;48.682;9.024;2023-03-01T05:57:59;27.33;;;15.70;;
4011;SDS011;2020;48.682;9.024;2023-03-01T06:00:29;20.53;;;13.20;;
4011;SDS011;2020;48.682;9.024;2023-03-01T06:02:55;21.70;;;13.73;;
4011;SDS011;2020;48.682;9.024;2023-03-01T06:05:21;20.87;;;15.20;;
4011;SDS011;2020;48.682;9.024;2023-03-01T06:07:47;21.43;;;14.17;;
4011;SDS011;2020;48.682;9.024;2023-03-01T06:10:13;24.27;;;14.33;;
4011;SDS011;2020;48.682;9.024;2023-03-01T06:12:39;21.80;;;15.40;;
4011;SDS011;2020;48.682;9.024;2023-03-01T06:15:06;24.53;;;14.53;;
4011;SDS011;2020;48.682;9.024;2023-03-01T06:17:34;21.13;;;13.77;;
4011;SDS011;2020;48.682;9.024;2023-03-01T06:20:02;25.27;;;15.37;;
4011;SDS011;2020;48.682;9.024;2023-03-01T06:22:33;21.97;;;15.27;;
4011;SDS011;2020;48.682;9.024;2023-03-01T06:24:58;26.07;;;14.93;;
4011;SDS011;2020;48.682;9.024;2023-03-01T06:27:23;20.63;;;14.10;;
4011;SDS011;2020;48.682;9.024;2023-03-01T06:29:49;20.43;;;14.37;;
4011;SDS011;2020;48.682;9.024;2023-03-01T06:32:14;21.20;;;13.63;;
4011;SDS011;2020;48.682;9.024;2023-03-01T06:34:39;26.43;;;15.77;;
4011;SDS011;2020;48.682;9.024;2023-03-01T06:37:05;23.23;;;15.33;;
4011;SDS011;2020;48.682;9.024;2023-03-01T06:39:32;20.57;;;13.90;;
4011;SDS011;2020;48.682;9.024;2023-03-01T06:41:57;25.57;;;15.73;;
4011;SDS011;2020;48.682;9.024;2023-03-01T06:44:23;21.90;;;14.97;;
4011;SDS011;2020;48.682;9.024;2023-03-01T06:46:48;24.63;;;15.80;;
4011;SDS011;2020;48.682;9.024;2023-03-01T06:49:13;20.10;;;13.23;;
4011;SDS011;2020;48.682;9.024;2023-03-01T06:51:40;23.70;;;14.90;;
4011;SDS011;2020;48.682;9.024;2023-03-01T06:54:06;24.53;;;13.97;;
4011;SDS011;2020;48.682;9.024;2023-03-01T06:56:31;24.73;;;15.37;;
4011;SDS011;2020;48.682;9.024;2023-03-01T06:58:57;24.40;;;16.03;;
4011;SDS011;2020;48.682;9.024;2023-03-01T07:01:22;23.33;;;15.90;;
4011;SDS011;2020;48.682;9.024;2023-03-01T07:03:47;22.97;;;15.03;;
4011;SDS011;2020;48.682;9.024;2023-03-01T07:06:13;20.27;;;14.60;;
4011;SDS011;2020;48.682;9.024;2023-03-01T07:08:38;22.30;;;14.97;;
4011;SDS011;2020;48.682;9.024;2023-03-01T07:11:03;21.13;;;15.27;;
4011;SDS011;2020;48.682;9.024;2023-03-01T07:13:29;20.83;;;14.30;;
4011;SDS011;2020;48.682;9.024;2023-03-01T07:15:54;23.97;;;15.73;;
4011;SDS011;2020;48.682;9.024;2023-03-01T07:18:19;21.27;;;14.67;;
4011;SDS011;2020;48.682;9.024;2023-03-01T07:20:45;27.13;;;16.20;;
4011;SDS011;2020;48.682;9.024;2023-03-01T07:23:10;19.33;;;13.53;;
4011;SDS011;2020;48.682;9.024;2023-03-01T07:25:35;28.13;;;17.23;;
4011;SDS011;2020;48.682;9.024;2023-03-01T07:28:01;22.13;;;15.67;;
4011;SDS011;2020;48.682;9.024;2023-03-01T07:30:26;21.67;;;13.37;;
4011;SDS011;2020;48.682;9.024;2023-03-01T07:32:53;23.00;;;15.17;;
4011;SDS011;2020;48.682;9.024;2023-03-01T07:35:23;21.97;;;15.43;;
4011;SDS011;2020;48.682;9.024;2023-03-01T07:37:50;20.80;;;14.27;;
4011;SDS011;2020;48.682;9.024;2023-03-01T07:40:15;23.23;;;15.60;;
4011;SDS011;2020;48.682;9.024;2023-03-01T07:42:41;23.60;;;15.33;;
4011;SDS011;2020;48.682;9.024;2023-03-01T07:45:06;21.67;;;14.93;;
4011;SDS011;2020;48.682;9.024;2023-03-01T07:47:32;25.23;;;14.50;;
4011;SDS011;2020;48.682;9.024;2023-03-01T07:49:57;22.87;;;15.90;;
4011;SDS011;2020;48.682;9.024;2023-03-01T07:52:23;21.10;;;14.77;;
4011;SDS011;2020;48.682;9.024;2023-03-01T07:54:48;23.20;;;15.87;;
4011;SDS011;2020;48.682;9.024;2023-03-01T07:57:13;25.03;;;14.77;;
4011;SDS011;2020;48.682;9.024;2023-03-01T07:59:39;22.77;;;15.77;;
4011;SDS011;2020;48.682;9.024;2023-03-01T08:02:04;22.20;;;15.43;;
4011;SDS011;2020;48.682;9.024;2023-03-01T08:04:31;22.13;;;14.60;;
4011;SDS011;2020;48.682;9.024;2023-03-01T08:06:57;25.60;;;15.50;;
4011;SDS011;2020;48.682;9.024;2023-03-01T08:09:23;26.13;;;15.77;;
4011;SDS011;2020;48.682;9.024;2023-03-01T08:11:49;22.10;;;16.13;;
4011;SDS011;2020;48.682;9.024;2023-03-01T08:14:14;21.53;;;16.33;;
4011;SDS011;2020;48.682;9.024;2023-03-01T08:16:39;26.33;;;17.03;;
4011;SDS011;2020;48.682;9.024;2023-03-01T08:19:05;25.30;;;15.70;;
4011;SDS011;2020;48.682;9.024;2023-03-01T08:21:32;25.00;;;17.20;;
4011;SDS011;2020;48.682;9.024;2023-03-01T08:23:59;22.13;;;16.00;;
4011;SDS011;2020;48.682;9.024;2023-03-01T08:26:25;24.53;;;17.23;;
4011;SDS011;2020;48.682;9.024;2023-03-01T08:28:50;22.30;;;15.53;;
4011;SDS011;2020;48.682;9.024;2023-03-01T08:31:20;29.03;;;15.43;;
4011;SDS011;2020;48.682;9.024;2023-03-01T08:33:48;23.03;;;15.47;;
4011;SDS011;2020;48.682;9.024;2023-03-01T08:36:21;24.77;;;17.10;;
4011;SDS011;2020;48.682;9.024;2023-03-01T08:38:50;24.93;;;16.60;;
4011;SDS011;2020;48.682;9.024;2023-03-01T08:41:16;26.33;;;16.73;;
4011;SDS011;2020;48.682;9.024;2023-03-01T08:43:41;25.50;;;16.20;;
4011;SDS011;2020;48.682;9.024;2023-03-01T08:46:06;21.27;;;16.33;;
4011;SDS011;2020;48.682;9.024;2023-03-01T08:48:32;23.27;;;14.80;;
4011;SDS011;2020;48.682;9.024;2023-03-01T08:51:06;31.60;;;17.90;;
4011;SDS011;2020;48.682;9.024;2023-03-01T08:53:33;24.27;;;17.77;;
4011;SDS011;2020;48.682;9.024;2023-03-01T08:56:01;17.03;;;13.73;;
4011;SDS011;2020;48.682;9.024;2023-03-01T08:58:29;21.20;;;15.30;;
4011;SDS011;2020;48.682;9.024;2023-03-01T09:00:55;21.57;;;16.70;;
4011;SDS011;2020;48.682;9.024;2023-03-01T09:03:24;22.70;;;16.00;;
4011;SDS011;2020;48.682;9.024;2023-03-01T09:05:50;23.80;;;16.33;;
4011;SDS011;2020;48.682;9.024;2023-03-01T09:08:16;19.13;;;14.60;;
4011;SDS011;2020;48.682;9.024;2023-03-01T09:10:42;24.53;;;16.80;;
4011;SDS011;2020;48.682;9.024;2023-03-01T09:13:07;24.30;;;16.20;;
4011;SDS011;2020;48.682;9.024;2023-03-01T09:15:33;22.17;;;16.07;;
4011;SDS011;2020;48.682;9.024;2023-03-01T09:17:58;21.13;;;15.00;;
4011;SDS011;2020;48.682;9.024;2023-03-01T09:20:24;23.47;;;16.10;;
4011;SDS011;2020;48.682;9.024;2023-03-01T09:22:49;24.10;;;15.93;;
4011;SDS011;2020;48.682;9.024;2023-03-01T09:25:15;19.37;;;15.30;;
4011;SDS011;2020;48.682;9.024;2023-03-01T09:27:41;22.40;;;15.97;;
4011;SDS011;2020;48.682;9.024;2023-03-01T09:30:07;23.93;;;15.57;;
4011;SDS011;2020;48.682;9.024;2023-03-01T09:32:33;29.37;;;17.03;;
4011;SDS011;2020;48.682;9.024;2023-03-01T09:34:58;21.10;;;15.83;;
4011;SDS011;2020;48.682;9.024;2023-03-01T09:37:28;24.63;;;16.33;;
4011;SDS011;2020;48.682;9.024;2023-03-01T09:39:54;20.20;;;15.70;;
4011;SDS011;2020;48.682;9.024;2023-03-01T09:42:19;25.03;;;16.83;;
4011;SDS011;2020;48.682;9.024;2023-03-01T09:44:52;22.57;;;16.80;;
4011;SDS011;2020;48.682;9.024;2023-03-01T09:47:22;23.63;;;15.30;;
4011;SDS011;2020;48.682;9.024;2023-03-01T09:52:42;26.77;;;16.10;;
4011;SDS011;2020;48.682;9.024;2023-03-01T09:55:26;25.23;;;17.90;;
4011;SDS011;2020;48.682;9.024;2023-03-01T09:58:14;22.70;;;15.63;;
4011;SDS011;2020;48.682;9.024;2023-03-01T10:00:50;26.23;;;17.53;;
4011;SDS011;2020;48.682;9.024;2023-03-01T10:10:58;18.30;;;15.17;;
4011;SDS011;2020;48.682;9.024;2023-03-01T10:16:01;22.23;;;15.87;;
4011;SDS011;2020;48.682;9.024;2023-03-01T10:18:35;21.40;;;15.33;;
4011;SDS011;2020;48.682;9.024;2023-03-01T10:21:07;20.63;;;13.50;;
4011;SDS011;2020;48.682;9.024;2023-03-01T10:23:38;22.23;;;15.33;;
4011;SDS011;2020;48.682;9.024;2023-03-01T10:26:06;36.23;;;17.53;;
4011;SDS011;2020;48.682;9.024;2023-03-01T10:31:24;25.57;;;16.40;;
4011;SDS011;2020;48.682;9.024;2023-03-01T10:33:54;20.53;;;14.83;;
4011;SDS011;2020;48.682;9.024;2023-03-01T10:36:22;26.13;;;16.97;;
4011;SDS011;2020;48.682;9.024;2023-03-01T10:38:52;21.63;;;14.60;;
4011;SDS011;2020;48.682;9.024;2023-03-01T10:41:20;21.93;;;15.27;;
4011;SDS011;2020;48.682;9.024;2023-03-01T10:43:50;21.97;;;15.97;;
4011;SDS011;2020;48.682;9.024;2023-03-01T10:51:51;24.10;;;16.93;;
4011;SDS011;2020;48.682;9.024;2023-03-01T10:54:28;22.17;;;15.63;;
4011;SDS011;2020;48.682;9.024;2023-03-01T10:56:55;22.77;;;16.93;;
4011;SDS011;2020;48.682;9.024;2023-03-01T10:59:25;20.20;;;15.67;;
4011;SDS011;2020;48.682;9.024;2023-03-01T11:05:01;20.73;;;15.77;;
4011;SDS011;2020;48.682;9.024;2023-03-01T11:10:31;20.80;;;15.40;;
4011;SDS011;2020;48.682;9.024;2023-03-01T11:13:07;19.03;;;14.63;;
4011;SDS011;2020;48.682;9.024;2023-03-01T11:15:39;28.40;;;16.73;;
4011;SDS011;2020;48.682;9.024;2023-03-01T11:18:04;20.37;;;14.90;;
4011;SDS011;2020;48.682;9.024;2023-03-01T11:20:31;24.13;;;15.73;;
4011;SDS011;2020;48.682;9.024;2023-03-01T11:23:01;22.07;;;15.97;;
4011;SDS011;2020;48.682;9.024;2023-03-01T11:25:31;28.10;;;17.00;;
4011;SDS011;2020;48.682;9.024;2023-03-01T11:28:01;23.20;;;16.77;;
4011;SDS011;2020;48.682;9.024;2023-03-01T11:30:38;21.97;;;16.37;;
4011;SDS011;2020;48.682;9.024;2023-03-01T11:33:20;20.50;;;15.60;;
4011;SDS011;2020;48.682;9.024;2023-03-01T11:38:37;20.53;;;14.57;;
4011;SDS011;2020;48.682;9.024;2023-03-01T11:46:27;20.30;;;14.63;;
4011;SDS011;2020;48.682;9.024;2023-03-01T11:51:42;18.70;;;16.20;;
4011;SDS011;2020;48.682;9.024;2023-03-01T12:00:53;22.80;;;14.97;;
4011;SDS011;2020;48.682;9.024;2023-03-01T12:17:33;22.53;;;16.57;;
4011;SDS011;2020;48.682;9.024;2023-03-01T12:20:32;18.93;;;14.13;;
4011;SDS011;2020;48.682;9.024;2023-03-01T12:26:05;20.93;;;14.60;;
4011;SDS011;2020;48.682;9.024;2023-03-01T12:39:15;21.40;;;14.97;;
4011;SDS011;2020;48.682;9.024;2023-03-01T12:41:55;18.73;;;16.10;;
4011;SDS011;2020;48.682;9.024;2023-03-01T12:50:04;22.17;;;15.03;;
4011;SDS011;2020;48.682;9.024;2023-03-01T12:52:44;22.53;;;14.90;;
4011;SDS011;2020;48.682;9.024;2023-03-01T12:58:13;22.03;;;14.43;;
4011;SDS011;2020;48.682;9.024;2023-03-01T13:01:05;20.00;;;14.63;;
4011;SDS011;2020;48.682;9.024;2023-03-01T13:09:47;17.93;;;13.57;;
4011;SDS011;2020;48.682;9.024;2023-03-01T13:17:49;18.53;;;13.53;;
4011;SDS011;2020;48.682;9.024;2023-03-01T13:20:19;19.33;;;14.17;;
4011;SDS011;2020;48.682;9.024;2023-03-01T13:22:48;17.27;;;12.10;;
4011;SDS011;2020;48.682;9.024;2023-03-01T13:25:26;16.83;;;12.40;;
4011;SDS011;2020;48.682;9.024;2023-03-01T13:27:51;19.87;;;13.67;;
4011;SDS011;2020;48.682;9.024;2023-03-01T13:30:55;18.90;;;13.90;;
4011;SDS011;2020;48.682;9.024;2023-03-01T13:35:52;22.50;;;12.90;;
4011;SDS011;2020;48.682;9.024;2023-03-01T13:41:04;16.23;;;12.40;;
4011;SDS011;2020;48.682;9.024;2023-03-01T13:43:40;14.27;;;12.37;;
4011;SDS011;2020;48.682;9.024;2023-03-01T13:46:11;19.87;;;12.63;;
4011;SDS011;2020;48.682;9.024;2023-03-01T13:48:47;16.13;;;13.10;;
4011;SDS011;2020;48.682;9.024;2023-03-01T13:51:15;15.80;;;12.00;;
4011;SDS011;2020;48.682;9.024;2023-03-01T13:53:45;16.50;;;12.80;;
4011;SDS011;2020;48.682;9.024;2023-03-01T13:58:49;14.00;;;12.40;;
4011;SDS011;2020;48.682;9.024;2023-03-01T14:03:46;13.93;;;12.40;;
4011;SDS011;2020;48.682;9.024;2023-03-01T14:06:30;18.73;;;12.77;;
4011;SDS011;2020;48.682;9.024;2023-03-01T14:11:51;15.97;;;11.30;;
4011;SDS011;2020;48.682;9.024;2023-03-01T14:19:38;19.10;;;13.37;;
4011;SDS011;2020;48.682;9.024;2023-03-01T14:22:12;16.63;;;13.63;;
4011;SDS011;2020;48.682;9.024;2023-03-01T14:24:52;19.70;;;13.90;;
4011;SDS011;2020;48.682;9.024;2023-03-01T14:27:21;28.53;;;16.63;;
4011;SDS011;2020;48.682;9.024;2023-03-01T14:29:58;20.90;;;15.70;;
4011;SDS011;2020;48.682;9.024;2023-03-01T14:32:29;19.27;;;13.60;;
4011;SDS011;2020;48.682;9.024;2023-03-01T14:34:56;15.57;;;13.40;;
4011;SDS011;2020;48.682;9.024;2023-03-01T14:37:24;18.93;;;15.30;;
4011;SDS011;2020;48.682;9.024;2023-03-01T14:39:52;22.50;;;13.33;;
4011;SDS011;2020;48.682;9.024;2023-03-01T14:42:19;20.37;;;15.63;;
4011;SDS011;2020;48.682;9.024;2023-03-01T14:44:48;15.83;;;13.30;;
4011;SDS011;2020;48.682;9.024;2023-03-01T14:47:23;18.20;;;14.87;;
4011;SDS011;2020;48.682;9.024;2023-03-01T14:49:57;19.03;;;15.07;;
4011;SDS011;2020;48.682;9.024;2023-03-01T14:52:44;19.17;;;15.17;;
4011;SDS011;2020;48.682;9.024;2023-03-01T14:55:19;24.60;;;16.20;;
4011;SDS011;2020;48.682;9.024;2023-03-01T14:57:56;18.67;;;14.37;;
4011;SDS011;2020;48.682;9.024;2023-03-01T15:00:24;18.97;;;14.93;;
4011;SDS011;2020;48.682;9.024;2023-03-01T15:02:53;22.47;;;15.20;;
4011;SDS011;2020;48.682;9.024;2023-03-01T15:05:29;17.37;;;13.30;;
4011;SDS011;2020;48.682;9.024;2023-03-01T15:07:56;19.67;;;14.80;;
4011;SDS011;2020;48.682;9.024;2023-03-01T15:10:25;19.00;;;15.07;;
4011;SDS011;2020;48.682;9.024;2023-03-01T15:12:52;21.43;;;15.87;;
4011;SDS011;2020;48.682;9.024;2023-03-01T15:15:22;22.27;;;16.70;;
4011;SDS011;2020;48.682;9.024;2023-03-01T15:17:58;17.90;;;14.87;;
4011;SDS011;2020;48.682;9.024;2023-03-01T15:20:27;22.80;;;15.23;;
4011;SDS011;2020;48.682;9.024;2023-03-01T15:22:55;26.83;;;17.50;;
4011;SDS011;2020;48.682;9.024;2023-03-01T15:25:23;29.10;;;20.70;;
4011;SDS011;2020;48.682;9.024;2023-03-01T15:27:51;22.37;;;15.13;;
4011;SDS011;2020;48.682;9.024;2023-03-01T15:30:20;21.33;;;15.07;;
4011;SDS011;2020;48.682;9.024;2023-03-01T15:32:48;19.23;;;14.47;;
4011;SDS011;2020;48.682;9.024;2023-03-01T15:38:04;19.53;;;15.57;;
4011;SDS011;2020;48.682;9.024;2023-03-01T15:40:29;23.07;;;15.73;;
4011;SDS011;2020;48.682;9.024;2023-03-01T15:45:25;20.00;;;16.03;;
4011;SDS011;2020;48.682;9.024;2023-03-01T15:47:53;20.70;;;16.47;;
4011;SDS011;2020;48.682;9.024;2023-03-01T15:50:55;22.60;;;15.43;;
4011;SDS011;2020;48.682;9.024;2023-03-01T15:53:19;21.93;;;16.80;;
4011;SDS011;2020;48.682;9.024;2023-03-01T15:55:45;22.03;;;15.50;;
4011;SDS011;2020;48.682;9.024;2023-03-01T15:58:23;18.77;;;14.90;;
4011;SDS011;2020;48.682;9.024;2023-03-01T16:00:50;22.27;;;15.17;;
4011;SDS011;2020;48.682;9.024;2023-03-01T16:03:20;21.60;;;16.87;;
4011;SDS011;2020;48.682;9.024;2023-03-01T16:05:48;24.07;;;15.87;;
4011;SDS011;2020;48.682;9.024;2023-03-01T16:08:14;21.20;;;16.30;;
4011;SDS011;2020;48.682;9.024;2023-03-01T16:10:41;30.23;;;15.80;;
4011;SDS011;2020;48.682;9.024;2023-03-01T16:13:08;21.30;;;16.03;;
4011;SDS011;2020;48.682;9.024;2023-03-01T16:15:34;17.63;;;13.50;;
4011;SDS011;2020;48.682;9.024;2023-03-01T16:18:00;23.30;;;16.87;;
4011;SDS011;2020;48.682;9.024;2023-03-01T16:20:27;21.57;;;15.50;;
4011;SDS011;2020;48.682;9.024;2023-03-01T16:22:53;20.67;;;15.30;;
4011;SDS011;2020;48.682;9.024;2023-03-01T16:25:19;17.90;;;14.73;;
4011;SDS011;2020;48.682;9.024;2023-03-01T16:27:48;17.90;;;14.30;;
4011;SDS011;2020;48.682;9.024;2023-03-01T16:30:15;23.30;;;15.03;;
4011;SDS011;2020;48.682;9.024;2023-03-01T16:32:43;18.70;;;15.53;;
4011;SDS011;2020;48.682;9.024;2023-03-01T16:35:12;20.90;;;14.93;;
4011;SDS011;2020;48.682;9.024;2023-03-01T16:37:39;20.47;;;15.30;;
4011;SDS011;2020;48.682;9.024;2023-03-01T16:40:05;20.70;;;14.57;;
4011;SDS011;2020;48.682;9.024;2023-03-01T16:42:33;23.97;;;14.97;;
4011;SDS011;2020;48.682;9.024;2023-03-01T16:45:01;20.80;;;14.50;;
4011;SDS011;2020;48.682;9.024;2023-03-01T16:47:27;21.47;;;15.03;;
4011;SDS011;2020;48.682;9.024;2023-03-01T16:49:53;22.10;;;14.87;;
4011;SDS011;2020;48.682;9.024;2023-03-01T16:52:19;20.80;;;14.90;;
4011;SDS011;2020;48.682;9.024;2023-03-01T16:54:44;21.20;;;14.20;;
4011;SDS011;2020;48.682;9.024;2023-03-01T16:57:10;19.87;;;14.57;;
4011;SDS011;2020;48.682;9.024;2023-03-01T16:59:35;23.67;;;15.10;;